Time;durP1;ratioP1;P1;durP2;ratioP2;P2;SDS_P1;SDS_P2;PMS_P1;PMS_P2;Temp;Humidity;BMP_temperature;BMP_pressure;BME280_temperature;BME280_humidity;BME280_pressure;Samples;Min_cycle;Max_cycle;Signal;HPM_P1;HPM_P2
2023/05/03 00:01:48;;;;;;;;;;;5.60;99.90;;;;;;5060528;28;19975;-69
2023/05/03 00:04:17;;;;;;;;;;;5.70;99.90;;;;;;5053211;28;20063;-69
2023/05/03 00:06:43;;;;;;;;;;;5.60;99.90;;;;;;5035051;28;19979;-69
2023/05/03 00:09:09;;;;;;;;;;;5.60;99.90;;;;;;5062622;28;19924;-70
2023/05/03 00:11:35;;;;;;;;;;;5.70;99.90;;;;;;5070549;28;20516;-70
2023/05/03 00:14:01;;;;;;;;;;;5.70;99.90;;;;;;5073537;28;20018;-70
2023/05/03 00:16:27;;;;;;;;;;;5.80;99.90;;;;;;5073214;28;20267;-69
2023/05/03 00:18:52;;;;;;;;;;;5.90;99.90;;;;;;5072833;28;19932;-70
2023/05/03 00:21:18;;;;;;;;;;;5.90;99.90;;;;;;5056148;28;20394;-70
2023/05/03 00:23:43;;;;;;;;;;;5.90;99.90;;;;;;5052930;28;20481;-69
2023/05/03 00:26:09;;;;;;;;;;;6.00;99.90;;;;;;5072474;28;20451;-70
2023/05/03 00:28:34;;;;;;;;;;;6.10;99.90;;;;;;5064005;28;19999;-70
2023/05/03 00:31:07;;;;;;;;;;;6.30;99.90;;;;;;5035627;28;19964;-69
2023/05/03 00:33:32;;;;;;;;;;;6.20;99.90;;;;;;5054979;28;19931;-69
2023/05/03 00:35:58;;;;;;;;;;;6.20;99.90;;;;;;5062429;28;20298;-69
2023/05/03 00:38:23;;;;;;;;;;;6.20;99.90;;;;;;5052729;28;19970;-69
2023/05/03 00:40:52;;;;;;;;;;;6.30;99.90;;;;;;5052907;28;19970;-70
2023/05/03 00:43:18;;;;;;;;;;;6.40;99.90;;;;;;5072773;28;20281;-69
2023/05/03 00:45:45;;;;;;;;;;;6.40;99.90;;;;;;5072589;28;19924;-70
2023/05/03 00:48:11;;;;;;;;;;;6.50;99.90;;;;;;5065575;28;20275;-69
2023/05/03 00:50:37;;;;;;;;;;;6.50;99.90;;;;;;5052401;28;19929;-70
2023/05/03 00:53:03;;;;;;;;;;;6.50;99.90;;;;;;5070067;28;19978;-70
2023/05/03 00:55:29;;;;;;;;;;;6.60;99.90;;;;;;5068063;28;19928;-69
2023/05/03 00:57:56;;;;;;;;;;;6.60;99.90;;;;;;5072526;28;19924;-69
2023/05/03 01:00:22;;;;;;;;;;;6.60;99.90;;;;;;5071494;28;20425;-69
2023/05/03 01:02:48;;;;;;;;;;;6.60;99.90;;;;;;5072104;28;19924;-69
2023/05/03 01:05:14;;;;;;;;;;;6.60;99.90;;;;;;5072442;28;20061;-69
2023/05/03 01:08:00;;;;;;;;;;;6.60;99.90;;;;;;5053917;28;19924;-69
2023/05/03 01:10:32;;;;;;;;;;;6.70;99.90;;;;;;5069446;28;19932;-69
2023/05/03 01:13:08;;;;;;;;;;;6.70;99.90;;;;;;5070723;28;19924;-70
2023/05/03 01:15:48;;;;;;;;;;;6.80;99.90;;;;;;5072059;28;19975;-70
2023/05/03 01:18:17;;;;;;;;;;;6.80;99.90;;;;;;5061927;28;19925;-70
2023/05/03 01:20:45;;;;;;;;;;;6.80;99.90;;;;;;5051943;28;20405;-70
2023/05/03 01:23:27;;;;;;;;;;;6.90;99.90;;;;;;5051989;28;19929;-70
2023/05/03 01:25:53;;;;;;;;;;;6.90;99.90;;;;;;5072462;28;19921;-70
2023/05/03 01:28:18;;;;;;;;;;;6.90;99.90;;;;;;5052607;28;19947;-70
2023/05/03 01:30:45;;;;;;;;;;;7.00;99.90;;;;;;5072163;28;19946;-70
2023/05/03 01:33:17;;;;;;;;;;;7.00;99.90;;;;;;5074751;28;19925;-70
2023/05/03 01:35:54;;;;;;;;;;;7.00;99.90;;;;;;5073377;28;20370;-70
2023/05/03 01:38:19;;;;;;;;;;;7.00;99.90;;;;;;5068790;28;19925;-70
2023/05/03 01:40:49;;;;;;;;;;;7.00;99.90;;;;;;5067681;28;20264;-70
2023/05/03 01:43:16;;;;;;;;;;;7.00;99.90;;;;;;5068998;28;19924;-70
2023/05/03 01:45:42;;;;;;;;;;;6.90;99.90;;;;;;5064927;28;19925;-69
2023/05/03 01:48:09;;;;;;;;;;;7.40;99.90;;;;;;5055700;28;20282;-69
2023/05/03 01:50:35;;;;;;;;;;;6.80;99.90;;;;;;5055675;28;20345;-69
2023/05/03 01:53:00;;;;;;;;;;;6.70;99.90;;;;;;5042067;28;19928;-70
2023/05/03 01:55:26;;;;;;;;;;;6.70;99.90;;;;;;5070878;28;19970;-70
2023/05/03 01:57:51;;;;;;;;;;;6.70;99.90;;;;;;5076340;28;19947;-70
2023/05/03 02:00:17;;;;;;;;;;;6.70;99.90;;;;;;5058182;28;19925;-70
2023/05/03 02:02:42;;;;;;;;;;;6.60;99.90;;;;;;5075232;28;19925;-69
2023/05/03 02:05:08;;;;;;;;;;;6.70;99.90;;;;;;5075497;28;19925;-69
2023/05/03 02:07:34;;;;;;;;;;;6.60;99.90;;;;;;5072693;28;21858;-69
2023/05/03 02:09:59;;;;;;;;;;;6.60;99.90;;;;;;5066541;28;19932;-69
2023/05/03 02:12:25;;;;;;;;;;;6.60;99.90;;;;;;5054915;28;19925;-69
2023/05/03 02:14:51;;;;;;;;;;;6.60;99.90;;;;;;5055249;28;19948;-70
2023/05/03 02:17:17;;;;;;;;;;;6.60;99.90;;;;;;5058836;28;19932;-69
2023/05/03 02:19:43;;;;;;;;;;;6.60;99.90;;;;;;5055008;28;19925;-69
2023/05/03 02:22:08;;;;;;;;;;;6.60;99.90;;;;;;5054561;28;19932;-69
2023/05/03 02:24:35;;;;;;;;;;;6.60;99.90;;;;;;5073897;28;20344;-69
2023/05/03 02:27:03;;;;;;;;;;;6.60;99.90;;;;;;5063235;28;19979;-70
2023/05/03 02:29:29;;;;;;;;;;;6.70;99.90;;;;;;5067505;28;20374;-69
2023/05/03 02:31:56;;;;;;;;;;;6.70;99.90;;;;;;5074920;28;19932;-70
2023/05/03 02:34:21;;;;;;;;;;;6.70;99.90;;;;;;5075037;28;20293;-70
2023/05/03 02:36:47;;;;;;;;;;;6.80;99.90;;;;;;5073548;28;20011;-70
2023/05/03 02:39:12;;;;;;;;;;;6.80;99.90;;;;;;5070845;28;19925;-70
2023/05/03 02:41:38;;;;;;;;;;;6.90;99.90;;;;;;5065223;28;19928;-70
2023/05/03 02:44:03;;;;;;;;;;;6.80;99.90;;;;;;5042269;28;19991;-69
2023/05/03 02:46:30;;;;;;;;;;;6.80;99.90;;;;;;5067879;28;19978;-70
2023/05/03 02:48:55;;;;;;;;;;;6.80;99.90;;;;;;5056263;28;19964;-69
2023/05/03 02:51:21;;;;;;;;;;;6.90;99.90;;;;;;5069238;28;19939;-70
2023/05/03 02:53:46;;;;;;;;;;;6.90;99.90;;;;;;5039328;28;20374;-71
2023/05/03 02:56:12;;;;;;;;;;;7.00;99.90;;;;;;5058793;28;20450;-70
2023/05/03 02:58:37;;;;;;;;;;;6.90;99.90;;;;;;5075744;28;20031;-71
2023/05/03 03:01:03;;;;;;;;;;;6.90;99.90;;;;;;5074731;28;19924;-70
2023/05/03 03:03:28;;;;;;;;;;;6.90;99.90;;;;;;5055837;28;19963;-70
2023/05/03 03:05:54;;;;;;;;;;;6.90;99.90;;;;;;5075017;28;20011;-69
2023/05/03 03:08:19;;;;;;;;;;;6.90;99.90;;;;;;5072530;28;19967;-70
2023/05/03 03:10:45;;;;;;;;;;;6.80;99.90;;;;;;5074121;28;19976;-69
2023/05/03 03:13:10;;;;;;;;;;;6.80;99.90;;;;;;5074467;28;20405;-69
2023/05/03 03:15:36;;;;;;;;;;;6.90;99.90;;;;;;5056627;28;19924;-69
2023/05/03 03:18:01;;;;;;;;;;;6.80;99.90;;;;;;5074578;28;19932;-69
2023/05/03 03:20:27;;;;;;;;;;;6.80;99.90;;;;;;5065769;28;20004;-70
2023/05/03 03:22:52;;;;;;;;;;;6.70;99.90;;;;;;5060896;28;19932;-68
2023/05/03 03:25:18;;;;;;;;;;;6.70;99.90;;;;;;5057260;28;19924;-68
2023/05/03 03:27:44;;;;;;;;;;;6.70;99.90;;;;;;5077566;28;19931;-69
2023/05/03 03:30:10;;;;;;;;;;;6.70;99.90;;;;;;5077132;28;19936;-69
2023/05/03 03:32:36;;;;;;;;;;;6.70;99.90;;;;;;5078173;28;19928;-68
2023/05/03 03:35:01;;;;;;;;;;;6.70;99.90;;;;;;5077801;28;19936;-70
2023/05/03 03:37:27;;;;;;;;;;;6.60;99.90;;;;;;5082608;28;19947;-69
2023/05/03 03:39:52;;;;;;;;;;;6.70;99.90;;;;;;5078133;28;19938;-69
2023/05/03 03:42:19;;;;;;;;;;;6.60;99.90;;;;;;5057701;28;19928;-68
2023/05/03 03:44:45;;;;;;;;;;;6.60;99.90;;;;;;5075974;28;19924;-69
2023/05/03 03:47:10;;;;;;;;;;;6.60;99.90;;;;;;5075534;28;20455;-69
2023/05/03 03:49:36;;;;;;;;;;;6.60;99.90;;;;;;5072682;28;19925;-69
2023/05/03 03:52:01;;;;;;;;;;;6.50;99.90;;;;;;5074875;28;19924;-69
2023/05/03 03:54:27;;;;;;;;;;;6.50;99.90;;;;;;5073416;28;20323;-69
2023/05/03 03:56:53;;;;;;;;;;;6.50;99.90;;;;;;5072409;28;20275;-69
2023/05/03 03:59:18;;;;;;;;;;;6.50;99.90;;;;;;5074057;28;19988;-69
2023/05/03 04:01:44;;;;;;;;;;;6.40;99.90;;;;;;5061761;28;19925;-69
2023/05/03 04:04:09;;;;;;;;;;;6.40;99.90;;;;;;5054357;28;19986;-69
2023/05/03 04:06:35;;;;;;;;;;;6.40;99.90;;;;;;5064782;28;19946;-69
2023/05/03 04:09:00;;;;;;;;;;;6.30;99.90;;;;;;5054200;28;19929;-70
2023/05/03 04:11:26;;;;;;;;;;;6.30;99.90;;;;;;5055461;28;19933;-70
2023/05/03 04:13:51;;;;;;;;;;;6.30;99.90;;;;;;5069774;28;19932;-70
2023/05/03 04:16:17;;;;;;;;;;;6.30;99.90;;;;;;5053480;28;19925;-70
2023/05/03 04:18:43;;;;;;;;;;;6.30;99.90;;;;;;5059013;28;20398;-69
2023/05/03 04:21:08;;;;;;;;;;;6.30;99.90;;;;;;5065725;28;20433;-70
2023/05/03 04:23:34;;;;;;;;;;;6.20;99.90;;;;;;5064564;28;19924;-69
2023/05/03 04:26:00;;;;;;;;;;;6.30;99.90;;;;;;5075543;28;19974;-69
2023/05/03 04:28:25;;;;;;;;;;;6.40;99.90;;;;;;5077183;28;19932;-69
2023/05/03 04:30:52;;;;;;;;;;;6.40;99.90;;;;;;5076027;28;20429;-69
2023/05/03 04:33:18;;;;;;;;;;;6.40;99.90;;;;;;5074174;28;19924;-70
2023/05/03 04:35:43;;;;;;;;;;;6.50;99.90;;;;;;5039888;28;20423;-70
2023/05/03 04:38:09;;;;;;;;;;;6.60;99.90;;;;;;5059066;28;19992;-70
2023/05/03 04:40:35;;;;;;;;;;;6.60;99.90;;;;;;5056978;28;20027;-70
2023/05/03 04:43:00;;;;;;;;;;;6.60;99.90;;;;;;5074316;28;19936;-69
2023/05/03 04:45:26;;;;;;;;;;;6.70;99.90;;;;;;5075465;28;20343;-69
2023/05/03 04:47:52;;;;;;;;;;;6.70;99.90;;;;;;5077694;28;20555;-70
2023/05/03 04:50:18;;;;;;;;;;;6.80;99.90;;;;;;5074581;28;19929;-70
2023/05/03 04:52:43;;;;;;;;;;;6.80;99.90;;;;;;5073738;28;19933;-69
2023/05/03 04:55:09;;;;;;;;;;;6.90;99.90;;;;;;5055208;28;19925;-70
2023/05/03 04:57:35;;;;;;;;;;;6.90;99.90;;;;;;5072092;28;19932;-70
2023/05/03 05:00:00;;;;;;;;;;;7.00;99.90;;;;;;5057882;28;19925;-70
2023/05/03 05:02:26;;;;;;;;;;;7.00;99.90;;;;;;5072209;28;20003;-69
2023/05/03 05:04:52;;;;;;;;;;;7.10;99.90;;;;;;5076192;28;19931;-70
2023/05/03 05:07:17;;;;;;;;;;;7.20;99.90;;;;;;5078977;28;19924;-70
2023/05/03 05:09:43;;;;;;;;;;;7.20;99.90;;;;;;5079104;28;19932;-70
2023/05/03 05:12:08;;;;;;;;;;;7.20;99.90;;;;;;5056153;28;20019;-70
2023/05/03 05:14:34;;;;;;;;;;;7.30;99.90;;;;;;5077264;28;19931;-69
2023/05/03 05:17:00;;;;;;;;;;;7.20;99.90;;;;;;5076704;28;19924;-70
2023/05/03 05:19:25;;;;;;;;;;;7.30;99.90;;;;;;5075537;28;19932;-70
2023/05/03 05:21:51;;;;;;;;;;;7.30;99.90;;;;;;5076383;28;19924;-70
2023/05/03 05:24:16;;;;;;;;;;;7.40;99.90;;;;;;5076044;28;19940;-70
2023/05/03 05:26:42;;;;;;;;;;;7.40;99.90;;;;;;5075642;28;20294;-71
2023/05/03 05:29:07;;;;;;;;;;;7.50;99.90;;;;;;5075917;28;20293;-70
2023/05/03 05:31:34;;;;;;;;;;;7.50;99.90;;;;;;5076231;28;20335;-70
2023/05/03 05:33:59;;;;;;;;;;;7.50;99.90;;;;;;5075500;28;19932;-70
2023/05/03 05:36:25;;;;;;;;;;;7.50;99.90;;;;;;5075814;28;19924;-70
2023/05/03 05:38:50;;;;;;;;;;;7.60;99.90;;;;;;5074266;28;19930;-69
2023/05/03 05:41:16;;;;;;;;;;;7.70;99.90;;;;;;5075562;28;19928;-69
2023/05/03 05:43:41;;;;;;;;;;;7.60;99.90;;;;;;5073562;28;19924;-70
2023/05/03 05:46:07;;;;;;;;;;;7.70;99.90;;;;;;5075102;28;20007;-70
2023/05/03 05:48:33;;;;;;;;;;;7.80;99.90;;;;;;5075536;28;19938;-70
2023/05/03 05:50:58;;;;;;;;;;;7.90;99.90;;;;;;5057225;28;19931;-70
2023/05/03 05:53:24;;;;;;;;;;;7.90;99.90;;;;;;5050071;28;19925;-70
2023/05/03 05:55:49;;;;;;;;;;;7.90;99.90;;;;;;5066898;28;19925;-70
2023/05/03 05:58:15;;;;;;;;;;;8.00;99.90;;;;;;5074393;28;19931;-70
2023/05/03 06:00:41;;;;;;;;;;;8.00;99.90;;;;;;5057580;28;20027;-70
2023/05/03 06:03:06;;;;;;;;;;;8.10;99.90;;;;;;5073252;28;19958;-70
2023/05/03 06:05:32;;;;;;;;;;;8.10;99.90;;;;;;5062418;28;19931;-70
2023/05/03 06:07:57;;;;;;;;;;;8.10;99.90;;;;;;5073951;28;19931;-70
2023/05/03 06:10:23;;;;;;;;;;;8.10;99.90;;;;;;5075068;28;19970;-70
2023/05/03 06:12:49;;;;;;;;;;;8.10;99.90;;;;;;5073859;28;19968;-70
2023/05/03 06:15:15;;;;;;;;;;;8.20;99.90;;;;;;5042044;28;20015;-70
2023/05/03 06:17:40;;;;;;;;;;;8.20;99.90;;;;;;5054436;28;20024;-70
2023/05/03 06:20:10;;;;;;;;;;;8.30;99.90;;;;;;5068161;28;19932;-70
2023/05/03 06:22:36;;;;;;;;;;;8.30;99.90;;;;;;5063272;28;19920;-70
2023/05/03 06:25:02;;;;;;;;;;;8.30;99.90;;;;;;5054597;28;19935;-70
2023/05/03 06:27:27;;;;;;;;;;;8.40;99.90;;;;;;5055696;28;19931;-70
2023/05/03 06:29:53;;;;;;;;;;;8.40;99.90;;;;;;5061093;28;19925;-70
2023/05/03 06:32:20;;;;;;;;;;;8.50;99.90;;;;;;5059421;28;19972;-70
2023/05/03 06:34:47;;;;;;;;;;;8.50;99.90;;;;;;5073957;28;19964;-70
2023/05/03 06:37:13;;;;;;;;;;;8.50;99.90;;;;;;5072682;28;19930;-70
2023/05/03 06:39:38;;;;;;;;;;;8.60;99.90;;;;;;5053120;28;19987;-69
2023/05/03 06:42:04;;;;;;;;;;;8.50;99.90;;;;;;5055358;28;20394;-70
2023/05/03 06:44:29;;;;;;;;;;;8.50;99.90;;;;;;5055140;28;19947;-70
2023/05/03 06:46:55;;;;;;;;;;;8.60;99.90;;;;;;5066835;28;19931;-70
2023/05/03 06:49:21;;;;;;;;;;;8.70;99.90;;;;;;5074501;28;20329;-70
2023/05/03 06:51:46;;;;;;;;;;;8.80;99.90;;;;;;5073931;28;20284;-70
2023/05/03 06:54:12;;;;;;;;;;;8.80;99.90;;;;;;5059470;28;19955;-70
2023/05/03 06:56:38;;;;;;;;;;;8.80;99.90;;;;;;5054769;28;19971;-70
2023/05/03 06:59:03;;;;;;;;;;;8.90;99.90;;;;;;5054647;28;19924;-69
2023/05/03 07:01:30;;;;;;;;;;;9.00;99.90;;;;;;5071211;28;20404;-70
2023/05/03 07:03:55;;;;;;;;;;;9.00;99.90;;;;;;5054971;28;20011;-69
2023/05/03 07:06:23;;;;;;;;;;;9.00;99.90;;;;;;5073491;28;19968;-70
2023/05/03 07:08:50;;;;;;;;;;;9.10;99.90;;;;;;5074547;28;19978;-70
2023/05/03 07:11:16;;;;;;;;;;;9.20;99.90;;;;;;5056723;28;19925;-70
2023/05/03 07:13:41;;;;;;;;;;;9.20;99.90;;;;;;5060243;28;19924;-70
2023/05/03 07:16:07;;;;;;;;;;;9.30;99.90;;;;;;5042071;28;20300;-69
2023/05/03 07:18:32;;;;;;;;;;;9.30;99.90;;;;;;5039446;28;19960;-70
2023/05/03 07:21:00;;;;;;;;;;;9.40;99.90;;;;;;5064212;28;19971;-70
2023/05/03 07:23:26;;;;;;;;;;;9.30;99.90;;;;;;5052911;28;19925;-69
2023/05/03 07:25:52;;;;;;;;;;;9.40;99.90;;;;;;5042982;28;19970;-70
2023/05/03 07:28:18;;;;;;;;;;;9.40;99.90;;;;;;5072700;28;20267;-70
2023/05/03 07:30:44;;;;;;;;;;;9.50;99.90;;;;;;5070558;28;19970;-69
2023/05/03 07:33:09;;;;;;;;;;;9.40;99.90;;;;;;5047513;28;19932;-70
2023/05/03 07:35:35;;;;;;;;;;;9.60;99.90;;;;;;5058623;28;19925;-70
2023/05/03 07:38:00;;;;;;;;;;;9.50;99.90;;;;;;5060345;28;19932;-70
2023/05/03 07:40:27;;;;;;;;;;;9.50;99.90;;;;;;5052884;28;19931;-69
2023/05/03 07:42:53;;;;;;;;;;;9.70;99.90;;;;;;5052700;28;20011;-70
2023/05/03 07:45:19;;;;;;;;;;;9.70;99.90;;;;;;5059245;28;20409;-69
2023/05/03 07:47:45;;;;;;;;;;;9.70;99.90;;;;;;5072601;28;19925;-69
2023/05/03 07:50:10;;;;;;;;;;;9.80;99.90;;;;;;5071482;28;19924;-70
2023/05/03 07:52:36;;;;;;;;;;;9.90;99.90;;;;;;5050470;28;20016;-70
2023/05/03 07:55:02;;;;;;;;;;;10.00;99.90;;;;;;5052661;28;19924;-69
2023/05/03 07:57:28;;;;;;;;;;;10.00;99.90;;;;;;5052780;28;19925;-70
2023/05/03 07:59:54;;;;;;;;;;;10.00;99.90;;;;;;5054102;28;19932;-70
2023/05/03 08:02:20;;;;;;;;;;;9.90;99.90;;;;;;5072065;28;19977;-70
2023/05/03 08:04:46;;;;;;;;;;;9.90;99.90;;;;;;5054383;28;19925;-70
2023/05/03 08:07:11;;;;;;;;;;;10.00;99.90;;;;;;5070996;28;19931;-70
2023/05/03 08:09:37;;;;;;;;;;;10.00;99.90;;;;;;5037033;28;20433;-70
2023/05/03 08:12:03;;;;;;;;;;;10.10;99.90;;;;;;5072278;28;20370;-70
2023/05/03 08:14:28;;;;;;;;;;;10.10;99.90;;;;;;5071897;28;19929;-70
2023/05/03 08:16:54;;;;;;;;;;;10.10;99.90;;;;;;5064764;28;19925;-70
2023/05/03 08:19:19;;;;;;;;;;;10.10;99.90;;;;;;4989302;28;1777849;-70
2023/05/03 08:21:48;;;;;;;;;;;10.10;99.90;;;;;;5046675;28;19943;-70
2023/05/03 08:24:14;;;;;;;;;;;9.90;99.90;;;;;;5072123;28;19948;-69
2023/05/03 08:26:39;;;;;;;;;;;9.90;99.90;;;;;;5054742;28;20375;-70
2023/05/03 08:29:06;;;;;;;;;;;10.00;99.90;;;;;;5055780;28;19925;-70
2023/05/03 08:31:31;;;;;;;;;;;10.00;99.90;;;;;;5065648;28;19991;-69
2023/05/03 08:33:57;;;;;;;;;;;10.00;99.90;;;;;;5053118;28;20374;-70
2023/05/03 08:36:22;;;;;;;;;;;10.60;99.90;;;;;;5072131;28;19925;-70
2023/05/03 08:38:49;;;;;;;;;;;10.00;99.90;;;;;;5072806;28;19929;-69
2023/05/03 08:41:21;;;;;;;;;;;10.00;99.90;;;;;;5063129;28;19931;-70
2023/05/03 08:43:50;;;;;;;;;;;10.00;99.90;;;;;;5052101;28;19971;-70
2023/05/03 08:46:15;;;;;;;;;;;10.10;99.90;;;;;;5052536;28;19925;-71
2023/05/03 08:48:42;;;;;;;;;;;9.90;99.90;;;;;;5068727;28;19924;-70
2023/05/03 08:51:08;;;;;;;;;;;9.90;99.90;;;;;;5071083;28;19925;-71
2023/05/03 08:53:34;;;;;;;;;;;9.90;99.90;;;;;;5053391;28;19925;-70
2023/05/03 08:56:04;;;;;;;;;;;9.80;99.90;;;;;;5072548;28;19931;-70
2023/05/03 08:58:32;;;;;;;;;;;9.90;99.90;;;;;;5071308;28;20418;-70
2023/05/03 09:01:02;;;;;;;;;;;9.80;99.90;;;;;;5072369;28;19924;-71
2023/05/03 09:03:28;;;;;;;;;;;9.90;99.90;;;;;;5057058;28;20393;-71
2023/05/03 09:05:53;;;;;;;;;;;10.00;99.90;;;;;;5072301;28;20032;-70
2023/05/03 09:08:21;;;;;;;;;;;10.00;99.90;;;;;;5072212;28;19925;-70
2023/05/03 09:10:47;;;;;;;;;;;10.10;99.90;;;;;;5037250;28;19931;-70
2023/05/03 09:13:13;;;;;;;;;;;10.20;99.90;;;;;;5052159;28;19925;-70
2023/05/03 09:15:38;;;;;;;;;;;10.20;99.90;;;;;;5041296;28;19925;-67
2023/05/03 09:18:11;;;;;;;;;;;10.20;99.90;;;;;;5071383;28;19931;-70
2023/05/03 09:20:38;;;;;;;;;;;10.20;99.90;;;;;;5072883;28;20279;-70
2023/05/03 09:23:06;;;;;;;;;;;10.10;99.90;;;;;;5080026;28;19926;-71
2023/05/03 09:25:44;;;;;;;;;;;10.30;99.90;;;;;;5063595;28;19947;-71
2023/05/03 09:28:10;;;;;;;;;;;10.30;99.90;;;;;;5051786;28;20477;-70
2023/05/03 09:30:36;;;;;;;;;;;10.30;99.90;;;;;;5055684;28;19929;-70
2023/05/03 09:33:03;;;;;;;;;;;10.30;99.90;;;;;;5062866;28;20358;-70
2023/05/03 09:35:29;;;;;;;;;;;10.30;99.90;;;;;;5069090;28;20259;-73
2023/05/03 09:37:54;;;;;;;;;;;10.30;99.90;;;;;;5053874;28;19931;-70
2023/05/03 09:40:20;;;;;;;;;;;10.30;99.90;;;;;;5066946;28;19925;-70
2023/05/03 09:43:05;;;;;;;;;;;10.40;99.90;;;;;;5052658;28;19932;-69
2023/05/03 09:45:30;;;;;;;;;;;10.50;99.90;;;;;;5056830;28;19935;-70
2023/05/03 09:47:56;;;;;;;;;;;10.40;99.90;;;;;;5071904;28;19924;-70
2023/05/03 09:50:23;;;;;;;;;;;10.50;99.90;;;;;;5071624;28;19929;-70
2023/05/03 09:52:49;;;;;;;;;;;10.50;99.90;;;;;;5058813;28;19970;-70
2023/05/03 09:55:15;;;;;;;;;;;10.50;99.90;;;;;;5066339;28;19967;-70
2023/05/03 09:57:41;;;;;;;;;;;10.60;99.90;;;;;;5056835;28;19924;-70
2023/05/03 10:00:09;;;;;;;;;;;10.60;99.90;;;;;;5074637;28;19955;-70
2023/05/03 10:02:35;;;;;;;;;;;10.60;99.90;;;;;;5074022;28;19943;-70
2023/05/03 10:05:02;;;;;;;;;;;10.70;99.90;;;;;;5063711;28;19924;-71
2023/05/03 10:07:27;;;;;;;;;;;10.80;99.90;;;;;;5074108;28;20305;-70
2023/05/03 10:09:55;;;;;;;;;;;10.70;99.90;;;;;;5057116;28;19931;-70
2023/05/03 10:12:21;;;;;;;;;;;10.70;99.90;;;;;;5055229;28;19929;-70
2023/05/03 10:14:48;;;;;;;;;;;10.70;99.90;;;;;;5055486;28;19931;-70
2023/05/03 10:17:26;;;;;;;;;;;10.70;99.90;;;;;;5063429;28;19925;-69
2023/05/03 10:19:56;;;;;;;;;;;10.70;99.90;;;;;;5056840;28;19924;-69
2023/05/03 10:22:22;;;;;;;;;;;10.70;99.90;;;;;;5055098;28;20394;-69
2023/05/03 10:25:00;;;;;;;;;;;10.70;99.90;;;;;;5059082;28;19931;-70
2023/05/03 10:27:44;;;;;;;;;;;10.80;99.90;;;;;;5074281;28;20309;-70
2023/05/03 10:30:25;;;;;;;;;;;10.90;99.90;;;;;;5071837;28;20399;-69
2023/05/03 10:32:50;;;;;;;;;;;11.00;99.90;;;;;;5025981;28;19936;-69
2023/05/03 10:35:16;;;;;;;;;;;11.00;99.90;;;;;;5064289;28;19925;-69
2023/05/03 10:37:42;;;;;;;;;;;11.10;99.90;;;;;;5055094;28;19931;-69
2023/05/03 10:40:12;;;;;;;;;;;11.10;99.90;;;;;;5059815;28;19931;-69
2023/05/03 10:42:39;;;;;;;;;;;11.20;99.90;;;;;;5054374;28;19931;-70
2023/05/03 10:45:06;;;;;;;;;;;11.30;99.90;;;;;;5059568;28;19924;-70
2023/05/03 10:47:32;;;;;;;;;;;11.40;99.90;;;;;;5058463;28;20294;-70
2023/05/03 10:50:15;;;;;;;;;;;11.50;99.60;;;;;;5069675;28;19939;-70
2023/05/03 10:52:40;;;;;;;;;;;11.20;99.10;;;;;;5055702;28;19947;-69
2023/05/03 10:55:09;;;;;;;;;;;11.30;99.60;;;;;;5073351;28;20361;-70
2023/05/03 10:57:36;;;;;;;;;;;11.30;99.50;;;;;;5054604;28;19925;-69
2023/05/03 11:00:07;;;;;;;;;;;11.30;99.90;;;;;;5055683;28;20076;-69
2023/05/03 11:02:37;;;;;;;;;;;11.40;99.40;;;;;;5065983;28;20289;-70
2023/05/03 11:05:04;;;;;;;;;;;11.40;99.20;;;;;;5072453;28;20263;-69
2023/05/03 11:07:30;;;;;;;;;;;11.50;99.10;;;;;;5039831;28;19925;-69
2023/05/03 11:09:56;;;;;;;;;;;11.60;99.10;;;;;;5039609;28;19947;-67
2023/05/03 11:12:21;;;;;;;;;;;11.80;99.20;;;;;;5073939;28;20445;-69
2023/05/03 11:14:49;;;;;;;;;;;11.90;99.40;;;;;;5073738;28;20015;-69
2023/05/03 11:17:14;;;;;;;;;;;12.10;99.30;;;;;;5073493;28;20306;-69
2023/05/03 11:19:42;;;;;;;;;;;12.70;98.30;;;;;;5069186;28;19925;-70
2023/05/03 11:22:08;;;;;;;;;;;13.50;97.60;;;;;;5066209;28;20023;-67
2023/05/03 11:24:34;;;;;;;;;;;13.70;96.60;;;;;;5055551;28;19924;-68
2023/05/03 11:27:00;;;;;;;;;;;14.00;95.70;;;;;;5072304;28;19950;-68
2023/05/03 11:29:26;;;;;;;;;;;14.50;96.20;;;;;;5073383;28;19924;-68
2023/05/03 11:31:51;;;;;;;;;;;14.50;94.10;;;;;;5072466;28;20017;-68
2023/05/03 11:34:17;;;;;;;;;;;14.60;94.30;;;;;;5073388;28;19929;-68
2023/05/03 11:36:43;;;;;;;;;;;14.70;94.10;;;;;;5073428;28;19925;-69
2023/05/03 11:39:10;;;;;;;;;;;14.60;92.50;;;;;;5059500;28;20251;-68
2023/05/03 11:41:36;;;;;;;;;;;14.20;93.50;;;;;;5053345;28;19932;-68
2023/05/03 11:44:02;;;;;;;;;;;14.00;95.10;;;;;;5035860;28;19925;-69
2023/05/03 11:46:31;;;;;;;;;;;13.80;94.50;;;;;;5051611;28;19924;-69
2023/05/03 11:48:56;;;;;;;;;;;13.70;94.70;;;;;;5071913;28;19931;-69
2023/05/03 11:51:22;;;;;;;;;;;13.50;95.00;;;;;;5071364;28;19924;-68
2023/05/03 11:53:48;;;;;;;;;;;13.30;95.20;;;;;;5055273;28;19925;-68
2023/05/03 11:56:16;;;;;;;;;;;13.00;96.40;;;;;;5072448;28;19924;-68
2023/05/03 11:58:52;;;;;;;;;;;12.80;96.40;;;;;;5072954;28;20399;-68
2023/05/03 12:01:19;;;;;;;;;;;13.10;95.70;;;;;;5068522;28;19925;-68
2023/05/03 12:03:48;;;;;;;;;;;12.70;96.00;;;;;;5071967;28;19925;-68
2023/05/03 12:06:15;;;;;;;;;;;12.40;97.00;;;;;;5071839;28;19924;-68
2023/05/03 12:08:41;;;;;;;;;;;12.20;97.50;;;;;;5070123;28;19925;-68
2023/05/03 12:11:06;;;;;;;;;;;12.20;97.30;;;;;;5050865;28;20011;-68
2023/05/03 12:13:36;;;;;;;;;;;12.30;97.50;;;;;;5069220;28;19932;-68
2023/05/03 12:16:02;;;;;;;;;;;12.40;97.60;;;;;;5066340;28;19949;-68
2023/05/03 12:18:43;;;;;;;;;;;12.60;97.00;;;;;;5070134;28;19925;-68
2023/05/03 12:21:09;;;;;;;;;;;12.60;97.10;;;;;;5070851;28;20374;-67
2023/05/03 12:23:34;;;;;;;;;;;12.80;97.20;;;;;;5073038;28;20019;-69
2023/05/03 12:26:00;;;;;;;;;;;12.80;97.70;;;;;;5055087;28;20390;-68
2023/05/03 12:28:25;;;;;;;;;;;12.80;97.30;;;;;;5052846;28;19932;-68
2023/05/03 12:30:51;;;;;;;;;;;12.80;97.00;;;;;;5038799;28;19925;-69
2023/05/03 12:33:18;;;;;;;;;;;12.90;96.50;;;;;;5039698;28;19925;-69
2023/05/03 12:35:44;;;;;;;;;;;12.60;97.10;;;;;;5035132;28;19924;-69
2023/05/03 12:38:10;;;;;;;;;;;12.50;97.30;;;;;;5055902;28;19925;-69
2023/05/03 12:40:35;;;;;;;;;;;12.60;97.60;;;;;;5047065;28;19925;-69
2023/05/03 12:43:02;;;;;;;;;;;12.80;98.50;;;;;;5052623;28;19932;-69
2023/05/03 12:45:29;;;;;;;;;;;13.60;98.80;;;;;;5066150;28;19947;-69
2023/05/03 12:47:55;;;;;;;;;;;13.90;95.20;;;;;;5071555;28;19924;-69
2023/05/03 12:50:20;;;;;;;;;;;14.00;94.80;;;;;;5072151;28;19931;-68
2023/05/03 12:52:46;;;;;;;;;;;13.90;95.60;;;;;;5072313;28;20332;-68
2023/05/03 12:55:11;;;;;;;;;;;13.90;95.40;;;;;;5057128;28;19924;-68
2023/05/03 12:57:37;;;;;;;;;;;13.60;95.10;;;;;;5055106;28;19979;-68
2023/05/03 13:00:04;;;;;;;;;;;13.70;95.20;;;;;;5066155;28;20359;-68
2023/05/03 13:02:30;;;;;;;;;;;13.40;95.00;;;;;;5071582;28;20390;-69
2023/05/03 13:04:56;;;;;;;;;;;13.00;95.00;;;;;;5072590;28;19999;-69
2023/05/03 13:07:23;;;;;;;;;;;12.70;95.60;;;;;;5066099;28;19924;-69
2023/05/03 13:09:50;;;;;;;;;;;12.80;95.90;;;;;;5052420;28;19925;-69
2023/05/03 13:12:19;;;;;;;;;;;13.10;94.90;;;;;;5052901;28;19936;-69
2023/05/03 13:14:45;;;;;;;;;;;13.00;96.30;;;;;;5051843;28;19925;-69
2023/05/03 13:17:12;;;;;;;;;;;13.20;94.30;;;;;;5047221;28;19932;-69
2023/05/03 13:19:37;;;;;;;;;;;13.00;96.40;;;;;;5056356;28;19932;-69
2023/05/03 13:22:03;;;;;;;;;;;13.60;95.60;;;;;;5053782;28;19925;-67
2023/05/03 13:24:28;;;;;;;;;;;14.40;95.90;;;;;;5060966;28;19992;-68
2023/05/03 13:26:54;;;;;;;;;;;15.40;95.40;;;;;;5071105;28;19971;-69
2023/05/03 13:29:20;;;;;;;;;;;15.70;93.20;;;;;;5070655;28;20306;-68
2023/05/03 13:31:46;;;;;;;;;;;15.90;93.60;;;;;;5069293;28;20339;-67
2023/05/03 13:34:12;;;;;;;;;;;15.50;93.70;;;;;;5074315;28;19931;-67
2023/05/03 13:36:38;;;;;;;;;;;15.30;93.00;;;;;;5075043;28;19982;-68
2023/05/03 13:39:05;;;;;;;;;;;15.70;92.50;;;;;;5074001;28;19987;-68
2023/05/03 13:41:31;;;;;;;;;;;15.60;91.50;;;;;;5073793;28;19981;-68
2023/05/03 13:43:57;;;;;;;;;;;14.70;92.30;;;;;;5061655;28;19929;-68
2023/05/03 13:46:22;;;;;;;;;;;13.90;93.30;;;;;;5064482;28;19924;-67
2023/05/03 13:48:48;;;;;;;;;;;14.60;95.30;;;;;;5076026;28;19943;-69
2023/05/03 13:51:13;;;;;;;;;;;15.50;94.20;;;;;;5060392;28;19987;-69
2023/05/03 13:53:39;;;;;;;;;;;16.90;93.80;;;;;;5065201;28;20370;-69
2023/05/03 13:56:05;;;;;;;;;;;18.00;92.10;;;;;;5075360;28;19991;-68
2023/05/03 13:58:31;;;;;;;;;;;18.40;90.00;;;;;;5075464;28;19940;-69
2023/05/03 14:00:56;;;;;;;;;;;18.40;84.40;;;;;;5074661;28;19931;-68
2023/05/03 14:03:22;;;;;;;;;;;18.30;84.10;;;;;;5073725;28;19925;-68
2023/05/03 14:05:48;;;;;;;;;;;18.30;82.40;;;;;;5061235;28;20393;-68
2023/05/03 14:08:15;;;;;;;;;;;18.50;84.60;;;;;;5073190;28;19924;-68
2023/05/03 14:10:42;;;;;;;;;;;18.60;83.30;;;;;;5075302;28;19936;-69
2023/05/03 14:13:07;;;;;;;;;;;18.60;83.70;;;;;;5074607;28;19931;-68
2023/05/03 14:15:37;;;;;;;;;;;18.50;84.10;;;;;;5069141;28;19931;-68
2023/05/03 14:18:03;;;;;;;;;;;17.90;83.50;;;;;;5059926;28;19932;-69
2023/05/03 14:20:28;;;;;;;;;;;17.30;83.20;;;;;;5056223;28;19924;-69